CheckWX is a tool to help pilots better visualize weather data.  It is not intended as a substitute for an official pre-flight weather briefing.

18:29:38 UTC

ETGG METAR
Gluecksburg / Meierwik Airport
Gluecksburg, Germany
Current

1 hour ago

ETGG 221720Z 13010KT 9999 FEW100 BKN300 03/M01 Q1042 BLU+
Observed
Feb-22 @ 17:20 UTC
Wind
  • 130° at 10 KTS
Visibility
10,000+ meters
Flight Rules
VFR
Cloud Levels
  • Few at 10,000' AGL
  • Broken at 30,000' AGL
Temperature
C / 37°F
Dewpoint
-1°C / 30°F
Humidity
75%
Altimeter
30.77" Hg
Pressure
1041.91 hPa
Previous

2 hours ago

ETGG 221620Z 13008KT 9999 FEW100 BKN300 04/M02 Q1041 BLU+
Observed
Feb-22 @ 16:20 UTC
Wind
  • 130° at 8 KTS
Visibility
10,000+ meters
Flight Rules
VFR
Cloud Levels
  • Few at 10,000' AGL
  • Broken at 30,000' AGL
Temperature
C / 39°F
Dewpoint
-2°C / 28°F
Humidity
65%
Altimeter
30.74" Hg
Pressure
1040.91 hPa
Previous

3 hours ago

ETGG 221520Z 13011KT 9999 SCT090 BKN250 04/M02 Q1041 BLU+
Observed
Feb-22 @ 15:20 UTC
Wind
  • 130° at 11 KTS
Visibility
10,000+ meters
Flight Rules
VFR
Cloud Levels
  • Scattered at 9,000' AGL
  • Broken at 25,000' AGL
Temperature
C / 39°F
Dewpoint
-2°C / 28°F
Humidity
65%
Altimeter
30.74" Hg
Pressure
1040.91 hPa